Time;durP1;ratioP1;P1;durP2;ratioP2;P2;SDS_P1;SDS_P2;PMS_P1;PMS_P2;Temp;Humidity;BMP_temperature;BMP_pressure;BME280_temperature;BME280_humidity;BME280_pressure;Samples;Min_cycle;Max_cycle;Signal;HPM_P1;HPM_P2
2021/03/05 00:01:53;;;;;;;1999.90;999.90;;;;;;;5.08;74.93;101435.56;15779755;28;20421;-71
2021/03/05 00:09:27;;;;;;;1999.90;999.90;;;;;;;5.03;75.17;101438.34;15776838;28;20048;-71
2021/03/05 00:16:59;;;;;;;1999.90;999.90;;;;;;;5.03;74.94;101446.66;15796005;28;20309;-71
2021/03/05 00:24:31;;;;;;;1999.90;999.90;;;;;;;4.93;74.96;101449.44;15778732;28;20048;-71
2021/03/05 00:32:03;;;;;;;1999.90;999.90;;;;;;;4.85;75.60;101466.56;15780699;28;20179;-72
2021/03/05 00:39:35;;;;;;;1999.90;999.90;;;;;;;4.70;75.43;101463.81;15800874;28;20052;-71
2021/03/05 00:47:07;;;;;;;1999.90;999.90;;;;;;;4.88;74.42;101479.84;15795370;28;20097;-70
2021/03/05 00:54:39;;;;;;;1999.90;999.90;;;;;;;4.88;74.78;101488.13;15760996;28;20420;-71
2021/03/05 01:02:11;;;;;;;1999.90;999.90;;;;;;;4.73;73.93;101496.44;15776957;28;20081;-71
2021/03/05 01:09:44;;;;;;;1999.90;999.90;;;;;;;4.83;73.43;101499.19;15803982;28;20048;-71
2021/03/05 01:17:16;;;;;;;1999.90;999.90;;;;;;;4.55;74.01;101493.09;15788939;28;20040;-71
2021/03/05 01:24:48;;;;;;;1999.90;999.90;;;;;;;4.42;74.11;101503.84;15788648;28;20036;-71
2021/03/05 01:32:20;;;;;;;1999.90;999.90;;;;;;;4.21;74.38;101511.25;15755172;28;20044;-71
2021/03/05 01:39:52;;;;;;;1999.90;999.90;;;;;;;3.86;75.13;101510.00;15806236;28;20059;-71
2021/03/05 01:47:24;;;;;;;1999.90;999.90;;;;;;;4.28;73.50;101522.88;15806019;28;20048;-71
2021/03/05 01:54:56;;;;;;;1999.90;999.90;;;;;;;3.98;73.73;101532.69;15806180;28;20055;-72
2021/03/05 02:02:27;;;;;;;1999.90;999.90;;;;;;;3.79;74.43;101537.03;15803625;28;20040;-72
2021/03/05 02:10:00;;;;;;;1999.90;999.90;;;;;;;3.09;75.13;101536.25;15803139;28;20491;-71
2021/03/05 02:17:38;;;;;;;1999.90;999.90;;;;;;;3.07;74.26;101543.97;15801805;28;20044;-72
2021/03/05 02:25:42;;;;;;;1999.90;999.90;;;;;;;3.38;73.63;101558.00;15777223;28;20120;-73
2021/03/05 02:33:20;;;;;;;1999.90;999.90;;;;;;;3.25;73.42;101552.94;15783776;28;20048;-72
2021/03/05 02:40:55;;;;;;;1999.90;999.90;;;;;;;2.98;73.83;101555.72;15799675;28;20055;-71
2021/03/05 02:48:32;;;;;;;1999.90;999.90;;;;;;;3.15;73.25;101581.28;15800959;28;20119;-71
2021/03/05 02:56:09;;;;;;;1999.90;999.90;;;;;;;3.01;73.41;101591.06;15800802;28;20132;-71
2021/03/05 03:03:42;;;;;;;1999.90;999.90;;;;;;;3.08;72.29;101606.28;15800726;28;20052;-71
2021/03/05 03:11:14;;;;;;;;;;;;;;;2.74;74.16;101622.22;15801253;28;20528;-72
2021/03/05 03:18:47;;;;;;;1999.90;999.90;;;;;;;2.23;76.23;101618.03;15797332;28;19970;-71
2021/03/05 03:26:19;;;;;;;1999.90;999.90;;;;;;;2.27;75.21;101630.19;15778585;28;20399;-70
2021/03/05 03:33:52;;;;;;;1999.90;999.90;;;;;;;2.18;75.91;101639.97;15763761;28;20386;-71
2021/03/05 03:41:23;;;;;;;1999.90;999.90;;;;;;;2.07;75.81;101655.50;15780919;28;20105;-70
2021/03/05 03:49:01;;;;;;;1999.90;999.90;;;;;;;1.91;77.11;101673.75;15763352;28;20144;-70
2021/03/05 03:56:35;;;;;;;1999.90;999.90;;;;;;;1.80;76.02;101676.59;15798304;28;20092;-70
2021/03/05 04:04:10;;;;;;;1999.90;999.90;;;;;;;1.84;75.84;101683.25;15797971;28;20402;-70
2021/03/05 04:11:42;;;;;;;1999.90;999.90;;;;;;;2.02;74.60;101694.00;15797255;28;20465;-70
2021/03/05 04:19:15;;;;;;;1999.90;999.90;;;;;;;1.93;74.85;101692.75;15747680;28;20453;-70
2021/03/05 04:26:47;;;;;;;1999.90;999.90;;;;;;;1.92;74.36;101710.38;15779181;28;20231;-70
2021/03/05 04:34:20;;;;;;;1999.90;999.90;;;;;;;1.78;74.76;101720.06;15797099;28;20143;-70
2021/03/05 04:41:52;;;;;;;1999.90;999.90;;;;;;;1.66;74.33;101728.34;15804609;28;20044;-70
2021/03/05 04:49:24;;;;;;;1999.90;999.90;;;;;;;1.69;74.21;101742.47;15790321;28;20050;-70
2021/03/05 04:56:56;;;;;;;1999.90;999.90;;;;;;;1.66;73.65;101744.88;15808557;28;20036;-70
2021/03/05 05:04:29;;;;;;;1999.90;999.90;;;;;;;1.54;74.33;101755.13;15789088;28;20494;-71
2021/03/05 05:12:01;;;;;;;1999.90;999.90;;;;;;;1.05;75.87;101774.84;15789814;28;20411;-70
2021/03/05 05:19:33;;;;;;;1999.90;999.90;;;;;;;1.17;75.98;101791.28;15789767;28;20040;-70
2021/03/05 05:27:06;;;;;;;1999.90;999.90;;;;;;;1.23;75.84;101794.94;15807184;28;20095;-71
2021/03/05 05:34:38;;;;;;;1999.90;999.90;;;;;;;1.27;76.68;101802.50;15805990;28;20437;-70
2021/03/05 05:42:10;;;;;;;1999.90;999.90;;;;;;;1.31;75.58;101813.81;15805961;28;20044;-71
2021/03/05 05:49:44;;;;;;;1999.90;999.90;;;;;;;1.24;76.33;101835.13;15786252;28;20531;-70
2021/03/05 05:57:17;;;;;;;1999.90;999.90;;;;;;;1.12;76.29;101832.41;15803600;28;20054;-70
2021/03/05 06:04:52;;;;;;;1999.90;999.90;;;;;;;1.28;76.01;101831.66;15787107;28;20040;-70
2021/03/05 06:12:24;;;;;;;1999.90;999.90;;;;;;;1.32;75.12;101849.31;15803522;28;20093;-70
2021/03/05 06:19:57;;;;;;;1999.90;999.90;;;;;;;1.46;74.97;101852.66;15804141;28;20123;-70
2021/03/05 06:27:30;;;;;;;1999.90;999.90;;;;;;;1.52;74.37;101867.31;15786337;28;20402;-70
2021/03/05 06:35:03;;;;;;;1999.90;999.90;;;;;;;1.77;73.87;101875.22;15803748;28;20048;-71
2021/03/05 06:42:47;;;;;;;;;;;;;;;1.85;73.26;101891.34;15805072;28;20052;-69
2021/03/05 06:50:22;;;;;;;1999.90;999.90;;;;;;;2.07;72.99;101906.06;15802670;28;19920;-70
2021/03/05 06:57:54;;;;;;;1999.90;999.90;;;;;;;2.16;73.58;101928.56;15802852;28;20048;-71
2021/03/05 07:05:49;;;;;;;1999.90;999.90;;;;;;;3.22;73.06;101928.59;15784377;28;20058;-71
2021/03/05 07:13:21;;;;;;;1999.90;999.90;;;;;;;5.46;65.14;101935.19;15783941;28;20134;-70
2021/03/05 07:20:55;;;;;;;1999.90;999.90;;;;;;;6.69;59.23;101947.44;15783573;28;20040;-71
2021/03/05 07:28:27;;;;;;;1999.90;999.90;;;;;;;6.90;56.93;101953.84;15734309;28;20102;-70
2021/03/05 07:36:03;;;;;;;1999.90;999.90;;;;;;;7.66;57.72;101969.50;15737630;28;20407;-71
2021/03/05 07:43:35;;;;;;;1999.90;999.90;;;;;;;7.26;58.15;101975.97;15736952;28;20051;-70
2021/03/05 07:51:08;;;;;;;1999.90;999.90;;;;;;;7.87;57.24;101984.97;15702627;28;20360;-71
2021/03/05 07:58:46;;;;;;;1999.90;999.90;;;;;;;8.88;53.75;101988.31;15737370;28;20044;-69
2021/03/05 08:06:31;;;;;;;1999.90;999.90;;;;;;;8.78;53.65;102000.34;15718188;28;20467;-70
2021/03/05 08:14:23;;;;;;;1999.90;999.90;;;;;;;9.49;52.89;101996.91;15708497;28;20185;-70
2021/03/05 08:22:02;;;;;;;1999.90;999.90;;;;;;;10.69;48.42;102008.78;15779246;28;20068;-73
2021/03/05 08:30:02;;;;;;;1999.90;999.90;;;;;;;10.99;48.06;102013.03;15737049;28;20089;-72
2021/03/05 08:37:37;;;;;;;1999.90;999.90;;;;;;;10.58;49.19;102024.00;15691405;28;20052;-71
2021/03/05 08:45:15;;;;;;;1999.90;999.90;;;;;;;10.37;48.83;102028.22;15697776;28;20136;-70
2021/03/05 08:52:49;;;;;;;1999.90;999.90;;;;;;;10.46;49.88;102032.00;15688578;28;20517;-72
2021/03/05 09:00:27;;;;;;;1999.90;999.90;;;;;;;12.27;45.80;102042.25;15708377;28;20049;-71
2021/03/05 09:08:01;;;;;;;1999.90;999.90;;;;;;;11.99;45.66;102055.44;15728846;28;20040;-70
2021/03/05 09:15:42;;;;;;;1999.90;999.90;;;;;;;11.42;45.78;102070.72;15732771;28;20048;-70
2021/03/05 09:23:25;;;;;;;1999.90;999.90;;;;;;;11.79;46.34;102073.44;15744071;28;20044;-70
2021/03/05 09:30:58;;;;;;;1999.90;999.90;;;;;;;11.79;45.46;102089.34;15806218;28;20340;-70
2021/03/05 09:38:32;;;;;;;1999.90;999.90;;;;;;;13.89;41.37;102083.47;15823190;22;20540;-66
2021/03/05 09:46:16;;;;;;;1999.90;999.90;;;;;;;12.38;44.34;102096.03;15794601;28;20048;-64
2021/03/05 09:53:52;;;;;;;1999.90;999.90;;;;;;;13.50;40.64;102105.50;15794736;28;20618;-65
2021/03/05 10:01:27;;;;;;;1999.90;999.90;;;;;;;13.69;40.58;102113.72;15795521;28;20515;-64
2021/03/05 10:09:05;;;;;;;1999.90;999.90;;;;;;;13.73;39.69;102119.50;15787738;28;20043;-66
2021/03/05 10:16:38;;;;;;;1999.90;999.90;;;;;;;14.63;36.72;102123.75;15743430;28;20099;-66
2021/03/05 10:24:13;;;;;;;1999.90;999.90;;;;;;;14.99;35.86;102136.69;15781659;28;20052;-66
2021/03/05 10:31:50;;;;;;;1999.90;999.90;;;;;;;14.48;34.73;102140.22;15769565;28;20127;-66
2021/03/05 10:39:24;;;;;;;1999.90;999.90;;;;;;;15.17;33.99;102163.69;15740694;28;20037;-66
2021/03/05 10:46:57;;;;;;;1999.90;999.90;;;;;;;14.52;33.35;102169.31;15781090;28;20048;-66
2021/03/05 10:54:29;;;;;;;1999.90;999.90;;;;;;;11.09;37.80;102162.91;15784294;28;20044;-66
2021/03/05 11:11:23;;;;;;;1999.90;999.90;;;;;;;17.33;29.22;102169.78;15547861;28;20052;-66
2021/03/05 11:18:55;;;;;;;1999.90;999.90;;;;;;;15.43;29.81;102174.97;15744552;28;20068;-66
2021/03/05 11:26:28;;;;;;;1999.90;999.90;;;;;;;16.13;28.17;102196.22;15770786;28;20040;-66
2021/03/05 11:33:59;;;;;;;1999.90;999.90;;;;;;;17.46;27.88;102169.50;15767454;28;20626;-66
2021/03/05 11:41:32;;;;;;;1999.90;999.90;;;;;;;14.92;30.10;102181.34;15772016;28;20385;-66
2021/03/05 11:49:04;;;;;;;1999.90;999.90;;;;;;;12.73;34.87;102172.06;15784247;28;20306;-65
2021/03/05 11:56:37;;;;;;;1999.90;999.90;;;;;;;15.98;29.05;102191.16;15753389;28;20045;-65
2021/03/05 12:04:08;;;;;;;1999.90;999.90;;;;;;;17.29;26.04;102176.09;15742317;28;20036;-66
2021/03/05 12:11:41;;;;;;;1999.90;999.90;;;;;;;18.41;25.63;102184.66;15746939;28;20047;-65
2021/03/05 12:19:13;;;;;;;1999.90;999.90;;;;;;;18.70;23.91;102187.31;15746334;28;20041;-66
2021/03/05 12:26:46;;;;;;;1999.90;999.90;;;;;;;19.18;25.05;102185.63;15755251;28;20118;-65
2021/03/05 12:34:17;;;;;;;1999.90;999.90;;;;;;;19.41;23.59;102191.59;15762632;28;20060;-66
2021/03/05 12:41:50;;;;;;;1999.90;999.90;;;;;;;20.31;21.73;102197.81;15768196;28;20044;-65
2021/03/05 12:49:22;;;;;;;1999.90;999.90;;;;;;;21.97;19.86;102194.44;15801097;28;20043;-65
2021/03/05 12:56:56;;;;;;;1999.90;999.90;;;;;;;20.39;21.15;102200.47;15772923;28;20040;-66
2021/03/05 13:04:29;;;;;;;1999.90;999.90;;;;;;;21.46;21.43;102193.78;15786404;28;20454;-66
2021/03/05 13:12:01;;;;;;;1999.90;999.90;;;;;;;17.86;23.25;102206.53;15752088;28;20040;-65
2021/03/05 13:19:34;;;;;;;1999.90;999.90;;;;;;;16.05;25.54;102216.81;15787365;28;20040;-66
2021/03/05 13:27:07;;;;;;;1999.90;999.90;;;;;;;21.91;19.46;102215.84;15787495;28;20095;-64
2021/03/05 13:34:39;;;;;;;1999.90;999.90;;;;;;;19.26;22.76;102218.59;15798581;28;20076;-65
2021/03/05 13:42:12;;;;;;;1999.90;999.90;;;;;;;17.07;23.00;102215.91;15778797;28;20443;-65
2021/03/05 13:49:43;;;;;;;1999.90;999.90;;;;;;;13.04;27.88;102219.84;15765264;28;20040;-65
2021/03/05 13:57:16;;;;;;;1999.90;999.90;;;;;;;11.91;29.52;102218.38;15795007;28;20050;-65
2021/03/05 14:04:48;;;;;;;1999.90;999.90;;;;;;;11.62;29.82;102218.56;15807219;28;20051;-66
2021/03/05 14:12:20;;;;;;;1999.90;999.90;;;;;;;11.31;28.67;102222.94;15799224;28;20396;-66
2021/03/05 14:19:53;;;;;;;1999.90;999.90;;;;;;;10.37;29.84;102221.59;15776877;28;20048;-67
2021/03/05 14:27:26;;;;;;;1999.90;999.90;;;;;;;10.28;30.54;102219.75;15772275;28;20081;-66
2021/03/05 14:34:58;;;;;;;1999.90;999.90;;;;;;;9.90;30.64;102218.66;15770716;28;20044;-67
2021/03/05 14:42:30;;;;;;;1999.90;999.90;;;;;;;9.85;29.59;102222.34;15792057;28;20054;-71
2021/03/05 14:50:03;;;;;;;1999.90;999.90;;;;;;;10.08;31.30;102227.16;15791760;28;20037;-64
2021/03/05 14:57:37;;;;;;;1999.90;999.90;;;;;;;9.88;30.89;102237.66;15745821;28;20047;-64
2021/03/05 15:05:10;;;;;;;1999.90;999.90;;;;;;;9.57;32.13;102239.84;15728576;28;20105;-67
2021/03/05 15:12:45;;;;;;;1999.90;999.90;;;;;;;9.30;32.92;102237.53;15779444;28;20036;-66
2021/03/05 15:20:19;;;;;;;1999.90;999.90;;;;;;;9.78;32.23;102247.75;15783921;28;20062;-65
2021/03/05 15:27:52;;;;;;;1999.90;999.90;;;;;;;9.00;32.96;102258.84;15848732;22;20046;-60
2021/03/05 15:35:24;;;;;;;1999.90;999.90;;;;;;;8.89;32.98;102254.44;15844472;28;20043;-62
2021/03/05 15:42:56;;;;;;;1999.90;999.90;;;;;;;8.99;32.81;102273.03;15863843;28;20043;-58
2021/03/05 15:50:28;;;;;;;1999.90;999.90;;;;;;;8.45;34.07;102271.81;15867494;28;20044;-61
2021/03/05 15:58:01;;;;;;;1999.90;999.90;;;;;;;8.68;33.00;102287.91;15851123;28;20077;-58
2021/03/05 16:05:33;;;;;;;1999.90;999.90;;;;;;;8.76;32.52;102289.28;15865990;28;20040;-57
2021/03/05 16:13:06;;;;;;;1999.90;999.90;;;;;;;8.44;32.86;102297.09;15847140;28;20413;-59
2021/03/05 16:20:39;;;;;;;1999.90;999.90;;;;;;;8.42;32.80;102313.25;15849824;28;20040;-61
2021/03/05 16:28:12;;;;;;;1999.90;999.90;;;;;;;8.16;32.81;102310.47;15839444;28;20043;-59
2021/03/05 16:35:44;;;;;;;1999.90;999.90;;;;;;;7.97;33.29;102317.69;15831097;28;20039;-59
2021/03/05 16:43:19;;;;;;;1999.90;999.90;;;;;;;7.95;33.54;102317.13;15866545;28;20040;-58
2021/03/05 16:50:51;;;;;;;1999.90;999.90;;;;;;;7.93;33.38;102336.88;15825346;28;20048;-61
2021/03/05 16:58:28;;;;;;;1999.90;999.90;;;;;;;7.89;35.23;102330.19;15838754;28;20038;-59
2021/03/05 17:06:00;;;;;;;1999.90;999.90;;;;;;;7.55;36.20;102360.41;15855215;28;20515;-58
2021/03/05 17:13:33;;;;;;;1999.90;999.90;;;;;;;7.45;37.11;102369.53;15832134;28;20054;-61
2021/03/05 17:21:06;;;;;;;1999.90;999.90;;;;;;;7.16;37.02;102377.44;15867425;28;20184;-62
2021/03/05 17:28:39;;;;;;;1999.90;999.90;;;;;;;7.01;38.30;102390.41;15837625;28;20040;-61
2021/03/05 17:36:11;;;;;;;1999.90;999.90;;;;;;;6.68;38.69;102395.22;15816485;28;20371;-57
2021/03/05 17:43:44;;;;;;;1999.90;999.90;;;;;;;6.51;40.35;102422.25;15853014;28;20050;-60
2021/03/05 17:51:16;;;;;;;1999.90;999.90;;;;;;;6.31;40.21;102428.44;15865829;28;20472;-57
2021/03/05 17:58:48;;;;;;;1999.90;999.90;;;;;;;5.95;41.15;102435.56;15865148;28;20043;-60
2021/03/05 18:06:21;;;;;;;1999.90;999.90;;;;;;;5.83;41.59;102440.34;15849838;28;20120;-59
2021/03/05 18:13:54;;;;;;;1999.90;999.90;;;;;;;5.70;42.54;102452.69;15849853;28;20050;-58
2021/03/05 18:21:25;;;;;;;1999.90;999.90;;;;;;;5.63;42.86;102447.34;15849073;28;20173;-59
2021/03/05 18:28:58;;;;;;;1999.90;999.90;;;;;;;5.46;42.84;102452.09;15866113;28;20044;-58
2021/03/05 18:36:30;;;;;;;1999.90;999.90;;;;;;;5.36;43.42;102463.88;15869025;28;20055;-58
2021/03/05 18:44:04;;;;;;;1999.90;999.90;;;;;;;5.13;44.44;102476.00;15869016;28;20055;-60
2021/03/05 18:51:36;;;;;;;1999.90;999.90;;;;;;;4.89;46.01;102471.75;15872525;27;20038;-59
2021/03/05 18:59:09;;;;;;;1999.90;999.90;;;;;;;4.61;46.48;102476.28;15867119;28;20040;-61
2021/03/05 19:06:43;;;;;;;1999.90;999.90;;;;;;;4.42;46.72;102487.81;15832016;28;20131;-60
2021/03/05 19:14:16;;;;;;;1999.90;999.90;;;;;;;4.32;46.17;102494.00;15878289;27;20051;-61
2021/03/05 19:21:48;;;;;;;1999.90;999.90;;;;;;;4.03;47.42;102502.28;15841561;28;20098;-59
2021/03/05 19:29:21;;;;;;;1999.90;999.90;;;;;;;3.97;47.82;102508.81;15848009;28;20035;-60
2021/03/05 19:36:53;;;;;;;1999.90;999.90;;;;;;;3.88;48.49;102518.56;15859187;28;20051;-57
2021/03/05 19:44:26;;;;;;;1999.90;999.90;;;;;;;3.80;49.32;102529.97;15864454;28;20500;-59
2021/03/05 19:51:58;;;;;;;1999.90;999.90;;;;;;;3.70;49.69;102533.34;15865773;28;20054;-62
2021/03/05 19:59:35;;;;;;;1999.90;999.90;;;;;;;3.61;50.35;102532.06;15847104;28;20164;-61
2021/03/05 20:07:11;;;;;;;1999.90;999.90;;;;;;;3.57;50.57;102538.31;15864796;28;20073;-59
2021/03/05 20:14:44;;;;;;;1999.90;999.90;;;;;;;3.33;51.49;102548.50;15864651;28;20044;-63
2021/03/05 20:23:03;;;;;;;1999.90;999.90;;;;;;;3.34;51.63;102558.50;15855298;28;20071;-62
2021/03/05 20:30:41;;;;;;;1999.90;999.90;;;;;;;3.15;52.65;102569.63;15799917;28;20044;-62
2021/03/05 20:38:31;;;;;;;1999.90;999.90;;;;;;;3.04;52.81;102570.47;15799424;28;20177;-59
2021/03/05 20:46:04;;;;;;;1999.90;999.90;;;;;;;2.86;53.53;102568.63;15781148;28;20492;-59
2021/03/05 20:53:38;;;;;;;1999.90;999.90;;;;;;;2.64;53.94;102580.44;15782496;28;20040;-60
2021/03/05 21:01:15;;;;;;;1999.90;999.90;;;;;;;2.54;54.36;102589.28;15798784;28;20391;-62
2021/03/05 21:08:51;;;;;;;;;;;;;;;2.36;55.39;102597.56;15800730;28;20488;-63
2021/03/05 21:16:27;;;;;;;1999.90;999.90;;;;;;;2.29;54.98;102606.78;15795622;28;19927;-61
2021/03/05 21:23:59;;;;;;;1999.90;999.90;;;;;;;2.33;54.17;102609.91;15812566;22;20044;-64
2021/03/05 21:31:32;;;;;;;1999.90;999.90;;;;;;;1.78;54.84;102620.94;15813671;28;20071;-65
2021/03/05 21:39:08;;;;;;;1999.90;999.90;;;;;;;2.05;55.59;102623.38;15786731;28;20098;-62
2021/03/05 21:46:41;;;;;;;1999.90;999.90;;;;;;;2.07;55.17;102626.75;15751578;28;20416;-64
2021/03/05 21:54:13;;;;;;;1999.90;999.90;;;;;;;2.11;54.90;102637.09;15785348;28;20319;-65
2021/03/05 22:01:46;;;;;;;1999.90;999.90;;;;;;;1.94;55.50;102634.09;15799413;28;20101;-66
2021/03/05 22:09:19;;;;;;;1999.90;999.90;;;;;;;1.83;56.21;102648.63;15768624;28;20071;-65
2021/03/05 22:16:56;;;;;;;1999.90;999.90;;;;;;;1.78;56.66;102648.47;15767339;28;20033;-64
2021/03/05 22:24:29;;;;;;;1999.90;999.90;;;;;;;1.72;55.14;102647.47;15822922;28;20055;-64
2021/03/05 22:32:03;;;;;;;1999.90;999.90;;;;;;;1.68;56.81;102656.41;15871160;28;20059;-59
2021/03/05 22:39:38;;;;;;;1999.90;999.90;;;;;;;1.53;57.06;102651.25;15811151;28;20552;-60
2021/03/05 22:47:11;;;;;;;1999.90;999.90;;;;;;;1.51;57.22;102650.63;15834360;28;20040;-63
2021/03/05 22:54:42;;;;;;;1999.90;999.90;;;;;;;1.39;57.01;102653.28;15813679;28;20115;-62
2021/03/05 23:02:15;;;;;;;1999.90;999.90;;;;;;;1.37;56.45;102657.31;15852961;28;20050;-63
2021/03/05 23:09:49;;;;;;;1999.90;999.90;;;;;;;1.21;57.74;102664.22;15867239;28;20051;-62
2021/03/05 23:17:27;;;;;;;1999.90;999.90;;;;;;;1.08;57.76;102673.41;15824138;28;20039;-65
2021/03/05 23:24:59;;;;;;;1999.90;999.90;;;;;;;0.92;58.48;102667.59;15827306;28;20056;-62
2021/03/05 23:32:32;;;;;;;1999.90;999.90;;;;;;;0.78;59.54;102680.56;15808458;28;20043;-63
2021/03/05 23:40:07;;;;;;;1999.90;999.90;;;;;;;0.80;58.21;102678.44;15864372;28;20032;-64
2021/03/05 23:47:40;;;;;;;1999.90;999.90;;;;;;;0.68;58.44;102670.06;15810371;28;20308;-63
2021/03/05 23:55:14;;;;;;;1999.90;999.90;;;;;;;0.67;58.75;102670.28;15817448;28;20048;-62
